Time;durP1;ratioP1;P1;durP2;ratioP2;P2;SDS_P1;SDS_P2;PMS_P1;PMS_P2;Temp;Humidity;BMP_temperature;BMP_pressure;BME280_temperature;BME280_humidity;BME280_pressure;Samples;Min_cycle;Max_cycle;Signal;HPM_P1;HPM_P2
2022/12/01 00:00:15;;;;;;;1.33;0.60;;;3.60;99.90;;;;;;5113421;28;20570;-76
2022/12/01 00:02:42;;;;;;;1.73;0.40;;;3.60;99.90;;;;;;5113360;28;20447;-76
2022/12/01 00:05:09;;;;;;;6.03;1.33;;;3.60;99.90;;;;;;5113863;28;20470;-76
2022/12/01 00:07:36;;;;;;;1.30;0.83;;;3.60;99.90;;;;;;5113652;28;20443;-76
2022/12/01 00:12:48;;;;;;;0.50;0.50;;;3.60;99.90;;;;;;5113372;28;20894;-78
2022/12/01 00:15:15;;;;;;;0.30;0.30;;;3.60;99.90;;;;;;5113419;28;20824;-77
2022/12/01 00:17:44;;;;;;;4.83;1.13;;;3.60;99.90;;;;;;5113256;28;20447;-77
2022/12/01 00:20:12;;;;;;;1.23;0.80;;;3.70;99.90;;;;;;5113130;28;20504;-77
2022/12/01 00:22:41;;;;;;;7.20;1.60;;;3.70;99.90;;;;;;5113194;28;20440;-77
2022/12/01 00:25:08;;;;;;;3.93;0.77;;;3.80;99.90;;;;;;5113404;28;20466;-77
2022/12/01 00:27:35;;;;;;;2.97;1.23;;;3.80;99.90;;;;;;5113478;28;20439;-77
2022/12/01 00:30:04;;;;;;;0.90;0.70;;;3.80;99.90;;;;;;5113444;28;20440;-77
2022/12/01 00:32:31;;;;;;;2.43;1.07;;;3.70;99.90;;;;;;5113659;28;20446;-77
2022/12/01 00:34:58;;;;;;;0.30;0.30;;;3.70;99.90;;;;;;5113300;28;20829;-77
2022/12/01 00:37:24;;;;;;;1.67;0.67;;;3.60;99.90;;;;;;5114509;28;20813;-77
2022/12/01 00:39:51;;;;;;;2.53;0.97;;;3.60;99.90;;;;;;5117114;28;20475;-77
2022/12/01 00:42:19;;;;;;;0.50;0.50;;;3.50;99.90;;;;;;5116842;28;20984;-78
2022/12/01 00:44:46;;;;;;;0.70;0.70;;;3.50;99.90;;;;;;5117064;28;20463;-77
2022/12/01 00:47:15;;;;;;;1.17;1.07;;;3.50;99.90;;;;;;5116715;28;20921;-76
2022/12/01 00:49:44;;;;;;;0.70;0.50;;;3.50;99.90;;;;;;5116673;28;20451;-77
2022/12/01 00:52:11;;;;;;;1.43;0.70;;;3.40;99.90;;;;;;5116923;28;20467;-77
2022/12/01 00:54:38;;;;;;;0.80;0.60;;;3.40;99.90;;;;;;5116847;28;20468;-78
2022/12/01 00:57:05;;;;;;;1.23;0.80;;;3.40;99.90;;;;;;5116855;27;20497;-77
2022/12/01 00:59:31;;;;;;;0.40;0.40;;;3.40;99.90;;;;;;5116722;28;20532;-77
2022/12/01 01:01:59;;;;;;;0.50;0.40;;;3.30;99.90;;;;;;5116777;28;20439;-77
2022/12/01 01:04:29;;;;;;;1.10;1.10;;;3.40;99.90;;;;;;5116658;28;20471;-77
2022/12/01 01:06:56;;;;;;;2.47;0.83;;;3.40;99.90;;;;;;5116742;28;20469;-77
2022/12/01 01:09:24;;;;;;;1.93;0.90;;;3.40;99.90;;;;;;5116652;27;20517;-77
2022/12/01 01:11:51;;;;;;;0.60;0.43;;;3.40;99.90;;;;;;5116618;27;20527;-77
2022/12/01 01:14:18;;;;;;;1.20;1.17;;;3.40;99.90;;;;;;5116164;28;20472;-77
2022/12/01 01:16:45;;;;;;;2.40;0.67;;;3.40;99.90;;;;;;5116168;28;20957;-77
2022/12/01 01:19:12;;;;;;;1.57;1.50;;;3.40;99.90;;;;;;5115734;28;20990;-77
2022/12/01 01:21:40;;;;;;;3.10;0.57;;;3.30;99.90;;;;;;5116123;28;20918;-77
2022/12/01 01:24:07;;;;;;;1.70;0.80;;;3.30;99.90;;;;;;5116315;28;20437;-77
2022/12/01 01:26:35;;;;;;;1.40;1.00;;;3.30;99.90;;;;;;5116279;27;20426;-77
2022/12/01 01:29:04;;;;;;;0.80;0.80;;;3.30;99.90;;;;;;5116437;28;20769;-77
2022/12/01 01:31:31;;;;;;;2.30;0.83;;;3.30;99.90;;;;;;5115881;28;20447;-77
2022/12/01 01:33:58;;;;;;;5.00;0.90;;;3.40;99.90;;;;;;5116084;28;20854;-77
2022/12/01 01:36:26;;;;;;;0.30;0.30;;;3.30;99.90;;;;;;5116103;28;20430;-77
2022/12/01 01:38:54;;;;;;;0.30;0.30;;;3.40;99.90;;;;;;5115953;28;20452;-77
2022/12/01 01:41:22;;;;;;;0.80;0.80;;;3.40;99.90;;;;;;5116009;28;20496;-77
2022/12/01 01:43:51;;;;;;;0.67;0.67;;;3.40;99.90;;;;;;5116201;28;20443;-77
2022/12/01 01:46:19;;;;;;;0.50;0.50;;;3.40;99.90;;;;;;5115549;28;21017;-77
2022/12/01 01:48:49;;;;;;;1.93;1.33;;;3.50;99.90;;;;;;5115233;28;20447;-77
2022/12/01 01:51:17;;;;;;;1.40;1.30;;;3.50;99.90;;;;;;5116053;28;20414;-77
2022/12/01 01:53:46;;;;;;;0.80;0.80;;;3.50;99.90;;;;;;5115701;28;20450;-77
2022/12/01 01:56:14;;;;;;;0.47;0.47;;;3.50;99.90;;;;;;5115576;28;20989;-77
2022/12/01 01:58:41;;;;;;;0.40;0.40;;;3.50;99.90;;;;;;5115933;28;20446;-77
2022/12/01 02:01:08;;;;;;;1.20;1.17;;;3.40;99.90;;;;;;5115524;28;20457;-77
2022/12/01 02:03:37;;;;;;;2.10;0.70;;;3.40;99.90;;;;;;5115239;28;20935;-77
2022/12/01 02:06:06;;;;;;;2.30;0.60;;;3.40;99.90;;;;;;5115129;28;21005;-77
2022/12/01 02:08:35;;;;;;;0.93;0.93;;;3.30;99.90;;;;;;5115183;28;20941;-77
2022/12/01 02:11:25;;;;;;;0.80;0.80;;;3.30;99.90;;;;;;5115422;28;20444;-77
2022/12/01 02:14:05;;;;;;;9.77;0.93;;;3.30;99.90;;;;;;5114804;27;20451;-77
2022/12/01 02:16:41;;;;;;;0.87;0.87;;;3.30;99.90;;;;;;5115647;28;20427;-77
2022/12/01 02:19:26;;;;;;;0.93;0.93;;;3.30;99.90;;;;;;5114953;28;20921;-77
2022/12/01 02:22:05;;;;;;;5.70;0.87;;;3.40;99.90;;;;;;5115566;28;20431;-77
2022/12/01 02:25:07;;;;;;;0.40;0.40;;;3.40;99.90;;;;;;5115127;28;20467;-77
2022/12/01 02:27:51;;;;;;;0.47;0.47;;;3.30;99.90;;;;;;5114885;28;20430;-77
2022/12/01 02:30:19;;;;;;;1.70;1.60;;;3.30;99.90;;;;;;5115362;28;20423;-77
2022/12/01 02:32:57;;;;;;;0.80;0.63;;;3.30;99.90;;;;;;5114720;28;20928;-77
2022/12/01 02:35:33;;;;;;;1.53;0.50;;;3.30;99.90;;;;;;5114930;28;20464;-77
2022/12/01 02:38:11;;;;;;;1.17;0.90;;;3.20;99.90;;;;;;5114909;28;20424;-77
2022/12/01 02:40:43;;;;;;;2.47;1.90;;;3.20;99.90;;;;;;5115001;28;20467;-77
2022/12/01 02:43:16;;;;;;;0.40;0.40;;;3.20;99.90;;;;;;5114837;28;20432;-77
2022/12/01 02:45:48;;;;;;;0.30;0.30;;;3.20;99.90;;;;;;5115014;27;20464;-77
2022/12/01 02:48:22;;;;;;;0.40;0.40;;;3.20;99.90;;;;;;5114779;28;20432;-77
2022/12/01 02:50:51;;;;;;;0.90;0.53;;;3.30;99.90;;;;;;5114645;28;20431;-77
2022/12/01 02:53:19;;;;;;;0.40;0.40;;;3.30;99.90;;;;;;5114618;28;20440;-77
2022/12/01 02:55:48;;;;;;;0.70;0.70;;;3.30;99.90;;;;;;5115435;28;20468;-77
2022/12/01 02:58:15;;;;;;;2.33;1.40;;;3.30;99.90;;;;;;5114493;28;20448;-77
2022/12/01 03:00:53;;;;;;;2.10;0.90;;;3.30;99.90;;;;;;5113495;28;20476;-77
2022/12/01 03:03:35;;;;;;;1.27;1.27;;;3.30;99.90;;;;;;5114163;28;20427;-77
2022/12/01 03:06:12;;;;;;;5.07;0.87;;;3.20;99.90;;;;;;5114345;28;20769;-77
2022/12/01 03:08:48;;;;;;;0.87;0.70;;;3.10;99.90;;;;;;5114371;28;20471;-77
2022/12/01 03:11:27;;;;;;;0.33;0.33;;;3.10;99.90;;;;;;5114045;28;20766;-77
2022/12/01 03:14:05;;;;;;;0.40;0.40;;;3.10;99.90;;;;;;5114297;28;20428;-77
2022/12/01 03:16:41;;;;;;;0.50;0.50;;;3.00;99.90;;;;;;5113935;28;20918;-77
2022/12/01 03:19:14;;;;;;;0.40;0.40;;;3.00;99.90;;;;;;5113876;28;20398;-77
2022/12/01 03:21:46;;;;;;;3.10;0.50;;;3.00;99.90;;;;;;5114175;28;20428;-77
2022/12/01 03:24:17;;;;;;;1.53;0.80;;;3.00;99.90;;;;;;5114118;28;20515;-77
2022/12/01 03:26:48;;;;;;;3.53;1.23;;;3.00;99.90;;;;;;5114069;27;20440;-77
2022/12/01 03:29:18;;;;;;;0.80;0.80;;;3.10;99.90;;;;;;5114130;28;20851;-77
2022/12/01 03:31:48;;;;;;;4.23;1.53;;;3.10;99.90;;;;;;5113980;28;20422;-77
2022/12/01 03:34:22;;;;;;;0.40;0.40;;;3.10;99.90;;;;;;5113899;28;20439;-77
2022/12/01 03:36:55;;;;;;;0.37;0.37;;;3.10;99.90;;;;;;5113988;28;20443;-77
2022/12/01 03:39:26;;;;;;;0.40;0.40;;;3.10;99.90;;;;;;5114102;28;20428;-77
2022/12/01 03:41:57;;;;;;;0.80;0.70;;;3.10;99.90;;;;;;5113589;28;20911;-77
2022/12/01 03:44:31;;;;;;;3.33;0.97;;;3.10;99.90;;;;;;5113871;28;20471;-77
2022/12/01 03:47:01;;;;;;;2.50;1.53;;;3.20;99.90;;;;;;5113562;28;20428;-77
2022/12/01 03:49:30;;;;;;;0.90;0.90;;;3.10;99.90;;;;;;5114184;28;20432;-77
2022/12/01 03:52:07;;;;;;;0.97;0.57;;;3.20;99.90;;;;;;5113865;28;20813;-77
2022/12/01 03:54:44;;;;;;;0.60;0.60;;;3.20;99.90;;;;;;5113755;28;20470;-76
2022/12/01 03:57:15;;;;;;;0.70;0.70;;;3.10;99.90;;;;;;5113860;28;20482;-76
2022/12/01 03:59:43;;;;;;;1.60;1.10;;;3.10;99.90;;;;;;5113671;28;20516;-76
2022/12/01 04:02:10;;;;;;;0.60;0.60;;;3.00;99.90;;;;;;5113729;28;20447;-76
2022/12/01 04:04:38;;;;;;;0.80;0.80;;;3.00;99.90;;;;;;5113313;28;21005;-76
2022/12/01 04:07:05;;;;;;;1.00;1.00;;;3.00;99.90;;;;;;5113715;28;20451;-76
2022/12/01 04:09:32;;;;;;;0.97;0.80;;;3.00;99.90;;;;;;5113639;28;20443;-76
2022/12/01 04:14:42;;;;;;;0.40;0.40;;;3.20;99.90;;;;;;5117618;28;20469;-76
2022/12/01 04:17:09;;;;;;;2.60;2.40;;;3.10;99.90;;;;;;5117648;28;20447;-76
2022/12/01 04:19:37;;;;;;;1.97;1.73;;;3.10;99.90;;;;;;5117356;28;20517;-76
2022/12/01 04:22:04;;;;;;;1.43;1.00;;;3.10;99.90;;;;;;5117553;28;20444;-76
2022/12/01 04:24:31;;;;;;;0.50;0.50;;;3.10;99.90;;;;;;5117438;28;20475;-76
2022/12/01 04:26:57;;;;;;;0.87;0.50;;;3.10;99.90;;;;;;5117148;28;20935;-76
2022/12/01 04:29:24;;;;;;;0.93;0.90;;;3.00;99.90;;;;;;5117423;28;20444;-76
2022/12/01 04:31:51;;;;;;;2.00;1.70;;;3.00;99.90;;;;;;5117642;28;20451;-76
2022/12/01 04:34:18;;;;;;;0.30;0.30;;;3.00;99.90;;;;;;5116987;28;20998;-78
2022/12/01 04:36:46;;;;;;;2.20;1.07;;;3.00;99.90;;;;;;5116936;28;20943;-77
2022/12/01 04:39:13;;;;;;;1.27;0.90;;;3.00;99.90;;;;;;5116917;28;20973;-77
2022/12/01 04:41:39;;;;;;;0.50;0.47;;;3.00;99.90;;;;;;5117141;28;20821;-77
2022/12/01 04:44:06;;;;;;;0.57;0.57;;;3.00;99.90;;;;;;5116834;27;20426;-77
2022/12/01 04:46:33;;;;;;;2.40;0.90;;;2.90;99.90;;;;;;5116799;28;20956;-77
2022/12/01 04:48:59;;;;;;;0.40;0.40;;;2.90;99.90;;;;;;5117082;28;20808;-77
2022/12/01 04:51:26;;;;;;;3.23;0.80;;;2.80;99.90;;;;;;5116672;27;20442;-77
2022/12/01 04:53:54;;;;;;;0.43;0.43;;;2.80;99.90;;;;;;5116720;28;20448;-77
2022/12/01 04:56:21;;;;;;;0.40;0.40;;;2.80;99.90;;;;;;5116565;28;20901;-78
2022/12/01 04:58:48;;;;;;;0.83;0.43;;;2.80;99.90;;;;;;5116847;27;20447;-77
2022/12/01 05:01:17;;;;;;;3.53;0.80;;;2.70;99.90;;;;;;5116419;28;20982;-77
2022/12/01 05:03:45;;;;;;;0.90;0.53;;;2.70;99.90;;;;;;5116443;28;20422;-77
2022/12/01 05:06:14;;;;;;;1.43;1.40;;;2.70;99.90;;;;;;5116270;28;20832;-77
2022/12/01 05:08:41;;;;;;;0.50;0.50;;;2.70;99.90;;;;;;5116497;28;20932;-77
2022/12/01 05:11:11;;;;;;;1.63;0.70;;;2.60;99.90;;;;;;5116293;28;20811;-77
2022/12/01 05:13:39;;;;;;;1.60;1.50;;;2.70;99.90;;;;;;5116581;28;20414;-77
2022/12/01 05:16:07;;;;;;;0.30;0.30;;;2.70;99.90;;;;;;5116471;28;20464;-78
2022/12/01 05:18:34;;;;;;;0.60;0.60;;;2.70;99.90;;;;;;5116151;28;20789;-77
2022/12/01 05:21:02;;;;;;;0.30;0.30;;;2.70;99.90;;;;;;5115977;28;20491;-77
2022/12/01 05:23:31;;;;;;;0.70;0.70;;;2.70;99.90;;;;;;5115919;28;20447;-77
2022/12/01 05:25:58;;;;;;;0.47;0.47;;;2.70;99.90;;;;;;5116045;28;20470;-77
2022/12/01 05:28:27;;;;;;;0.30;0.30;;;2.80;99.90;;;;;;5116283;28;20427;-77
2022/12/01 05:30:54;;;;;;;0.80;0.60;;;2.90;99.90;;;;;;5116235;28;20440;-77
2022/12/01 05:33:22;;;;;;;3.50;0.80;;;2.90;99.90;;;;;;5116163;28;20450;-77
2022/12/01 05:35:50;;;;;;;1.13;1.13;;;3.00;99.90;;;;;;5115713;28;20836;-77
2022/12/01 05:38:17;;;;;;;0.70;0.70;;;2.90;99.90;;;;;;5116067;28;20463;-77
2022/12/01 05:40:50;;;;;;;0.73;0.50;;;2.90;99.90;;;;;;5115940;28;20475;-77
2022/12/01 05:43:16;;;;;;;0.63;0.63;;;2.90;99.90;;;;;;5115742;28;20904;-77
2022/12/01 05:45:44;;;;;;;1.03;0.50;;;2.90;99.90;;;;;;5115498;28;21009;-78
2022/12/01 05:48:11;;;;;;;0.40;0.40;;;2.90;99.90;;;;;;5115903;28;20474;-78
2022/12/01 05:50:39;;;;;;;1.57;1.47;;;2.90;99.90;;;;;;5115816;28;20813;-78
2022/12/01 05:53:06;;;;;;;1.13;1.13;;;2.90;99.90;;;;;;5115850;28;20418;-77
2022/12/01 05:55:33;;;;;;;1.13;0.80;;;3.00;99.90;;;;;;5115727;28;20464;-77
2022/12/01 05:58:00;;;;;;;0.40;0.40;;;3.10;99.90;;;;;;5115687;28;20444;-77
2022/12/01 06:00:26;;;;;;;0.70;0.70;;;3.00;99.90;;;;;;5115607;28;20487;-77
2022/12/01 06:02:54;;;;;;;3.50;1.80;;;3.00;99.90;;;;;;5116433;28;20439;-77
2022/12/01 06:05:21;;;;;;;0.30;0.30;;;3.00;99.90;;;;;;5115459;28;20455;-77
2022/12/01 06:07:48;;;;;;;2.97;0.50;;;3.00;99.90;;;;;;5115466;28;20952;-78
2022/12/01 06:10:15;;;;;;;0.60;0.60;;;3.00;99.90;;;;;;5115509;28;20424;-78
2022/12/01 06:12:42;;;;;;;1.70;1.40;;;3.00;99.90;;;;;;5115497;28;20448;-78
2022/12/01 06:15:11;;;;;;;0.40;0.40;;;3.00;99.90;;;;;;5115480;28;20470;-78
2022/12/01 06:17:38;;;;;;;0.70;0.70;;;3.00;99.90;;;;;;5115346;28;20450;-78
2022/12/01 06:20:08;;;;;;;1.17;0.60;;;3.00;99.90;;;;;;5114664;28;20846;-78
2022/12/01 06:22:34;;;;;;;0.80;0.47;;;3.00;99.90;;;;;;5114884;28;20943;-78
2022/12/01 06:25:01;;;;;;;0.50;0.50;;;2.90;99.90;;;;;;5115080;28;20434;-78
2022/12/01 06:27:28;;;;;;;0.60;0.57;;;2.90;99.90;;;;;;5115113;28;20440;-78
2022/12/01 06:29:55;;;;;;;0.47;0.47;;;2.90;99.90;;;;;;5114718;28;20488;-78
2022/12/01 06:32:21;;;;;;;0.80;0.80;;;2.90;99.90;;;;;;5115003;28;20440;-78
2022/12/01 06:34:48;;;;;;;0.93;0.93;;;2.90;99.90;;;;;;5114947;28;20467;-78
2022/12/01 06:37:16;;;;;;;0.30;0.30;;;2.90;99.90;;;;;;5114931;28;20440;-77
2022/12/01 06:39:43;;;;;;;2.73;1.63;;;2.90;99.90;;;;;;5114798;28;20961;-77
2022/12/01 06:42:10;;;;;;;1.90;0.97;;;2.90;99.90;;;;;;5114451;28;20475;-78
2022/12/01 06:44:37;;;;;;;7.30;0.90;;;2.80;99.90;;;;;;5114413;28;20438;-78
2022/12/01 06:47:04;;;;;;;0.40;0.40;;;2.90;99.90;;;;;;5114740;28;20454;-78
2022/12/01 06:49:31;;;;;;;1.27;0.60;;;2.90;99.90;;;;;;5114689;28;20446;-78
2022/12/01 06:51:58;;;;;;;1.50;1.40;;;2.90;99.90;;;;;;5114678;28;20441;-78
2022/12/01 06:54:26;;;;;;;11.30;0.97;;;2.90;99.90;;;;;;5114546;28;20460;-78
2022/12/01 06:56:52;;;;;;;0.90;0.90;;;2.80;99.90;;;;;;5114848;28;20454;-78
2022/12/01 06:59:19;;;;;;;0.63;0.63;;;2.70;99.90;;;;;;5114571;28;20439;-78
2022/12/01 07:01:46;;;;;;;0.70;0.50;;;2.70;99.90;;;;;;5114417;28;20480;-78
2022/12/01 07:04:13;;;;;;;0.50;0.50;;;2.70;99.90;;;;;;5114386;28;20452;-78
2022/12/01 07:06:40;;;;;;;0.30;0.20;;;2.80;99.90;;;;;;5114186;28;20940;-78
2022/12/01 07:09:06;;;;;;;0.70;0.70;;;2.70;99.90;;;;;;5114359;28;20448;-78
2022/12/01 07:11:35;;;;;;;0.40;0.40;;;2.70;99.90;;;;;;5114033;28;20924;-78
2022/12/01 07:14:02;;;;;;;0.47;0.47;;;2.70;99.90;;;;;;5114282;28;20444;-78
2022/12/01 07:16:29;;;;;;;1.60;1.20;;;2.80;99.90;;;;;;5114802;28;20504;-77
2022/12/01 07:18:56;;;;;;;1.10;1.07;;;2.70;99.90;;;;;;5114431;28;20503;-78
2022/12/01 07:21:23;;;;;;;1.50;1.40;;;2.60;99.90;;;;;;5113705;28;20541;-78
2022/12/01 07:23:50;;;;;;;2.57;1.03;;;2.60;99.90;;;;;;5114166;28;20419;-78
2022/12/01 07:26:18;;;;;;;3.10;1.10;;;2.70;99.90;;;;;;5114010;28;20464;-78
2022/12/01 07:28:46;;;;;;;0.50;0.50;;;2.70;99.90;;;;;;5114050;28;20444;-78
2022/12/01 07:31:14;;;;;;;2.93;2.67;;;2.60;99.90;;;;;;5113681;28;20947;-78
2022/12/01 07:33:41;;;;;;;3.73;0.83;;;2.60;99.90;;;;;;5113959;28;20447;-78
2022/12/01 07:36:10;;;;;;;1.50;0.50;;;2.60;99.90;;;;;;5113945;28;20459;-78
2022/12/01 07:38:37;;;;;;;1.70;0.70;;;2.60;99.90;;;;;;5113653;28;20939;-78
2022/12/01 07:41:05;;;;;;;3.43;0.80;;;2.60;99.90;;;;;;5113881;28;20483;-78
2022/12/01 07:43:33;;;;;;;0.87;0.50;;;2.60;99.90;;;;;;5113918;28;20450;-78
2022/12/01 07:46:07;;;;;;;0.63;0.63;;;2.70;99.90;;;;;;5113807;28;20459;-78
2022/12/01 07:48:34;;;;;;;2.10;0.83;;;2.70;99.90;;;;;;5113339;28;20439;-78
2022/12/01 07:51:01;;;;;;;0.60;0.60;;;2.70;99.90;;;;;;5113802;28;20475;-78
2022/12/01 07:53:28;;;;;;;5.77;1.40;;;2.80;99.90;;;;;;5113848;28;20440;-78
2022/12/01 07:55:54;;;;;;;0.40;0.33;;;2.80;99.90;;;;;;5114150;28;20479;-78
2022/12/01 07:58:21;;;;;;;1.00;1.00;;;2.80;99.90;;;;;;5113773;28;20469;-78
2022/12/01 08:00:48;;;;;;;1.27;1.13;;;2.90;99.90;;;;;;5113603;28;20458;-78
2022/12/01 08:03:16;;;;;;;1.50;0.80;;;2.90;99.90;;;;;;5113757;28;20428;-77
2022/12/01 08:05:43;;;;;;;0.50;0.50;;;2.90;99.90;;;;;;5113554;28;20464;-77
2022/12/01 08:08:10;;;;;;;2.07;0.80;;;3.00;99.90;;;;;;5113370;28;20976;-78
2022/12/01 08:10:37;;;;;;;4.90;0.90;;;3.00;99.90;;;;;;5113384;28;20444;-77
2022/12/01 08:13:04;;;;;;;3.43;1.33;;;3.00;99.90;;;;;;5113253;28;20935;-78
2022/12/01 08:15:30;;;;;;;1.10;0.73;;;2.90;99.90;;;;;;5113455;28;20442;-78
2022/12/01 08:18:01;;;;;;;0.70;0.70;;;3.00;99.90;;;;;;5113645;28;20448;-78
2022/12/01 08:20:29;;;;;;;1.37;1.30;;;2.90;99.90;;;;;;5113130;28;20973;-77
2022/12/01 08:22:56;;;;;;;0.70;0.70;;;3.00;99.90;;;;;;5113444;28;20844;-77
2022/12/01 08:25:22;;;;;;;1.07;0.63;;;3.00;99.90;;;;;;5113428;28;20464;-77
2022/12/01 08:27:49;;;;;;;2.73;1.70;;;3.10;99.90;;;;;;5113484;28;20531;-77
2022/12/01 08:30:16;;;;;;;3.70;0.67;;;3.20;99.90;;;;;;5113442;28;20822;-77
2022/12/01 08:32:43;;;;;;;1.33;1.23;;;3.20;99.90;;;;;;5113322;27;20429;-77
2022/12/01 08:35:10;;;;;;;0.30;0.30;;;3.20;99.90;;;;;;5113355;28;20478;-77
2022/12/01 08:37:38;;;;;;;2.63;1.50;;;3.20;99.90;;;;;;5113066;28;20961;-78
2022/12/01 08:40:06;;;;;;;5.37;1.13;;;3.20;99.90;;;;;;5112993;28;20917;-78
2022/12/01 08:42:33;;;;;;;0.87;0.50;;;3.20;99.90;;;;;;5112879;28;20483;-78
2022/12/01 08:44:59;;;;;;;0.73;0.73;;;3.20;99.90;;;;;;5113167;28;20464;-78
2022/12/01 08:47:27;;;;;;;3.03;1.27;;;3.10;99.90;;;;;;5113288;28;20444;-77
2022/12/01 08:49:54;;;;;;;0.80;0.80;;;3.20;99.90;;;;;;5113340;28;20775;-77
2022/12/01 08:52:21;;;;;;;1.83;0.90;;;3.20;99.90;;;;;;5113287;28;20439;-77
2022/12/01 08:54:49;;;;;;;2.40;1.03;;;3.20;99.90;;;;;;5113184;28;20467;-77
2022/12/01 08:57:16;;;;;;;0.50;0.50;;;3.20;99.90;;;;;;5113202;28;20451;-77
2022/12/01 08:59:43;;;;;;;2.10;0.60;;;3.20;99.90;;;;;;5114870;28;20467;-78
2022/12/01 09:02:14;;;;;;;0.70;0.70;;;3.30;99.90;;;;;;5116796;28;20471;-77
2022/12/01 09:04:40;;;;;;;2.77;0.97;;;3.30;99.90;;;;;;5116414;28;20840;-77
2022/12/01 09:07:10;;;;;;;2.30;1.27;;;3.30;99.90;;;;;;5116726;28;20439;-77
2022/12/01 09:09:37;;;;;;;1.33;0.93;;;3.30;99.90;;;;;;5116389;28;20455;-78
2022/12/01 09:12:06;;;;;;;1.43;0.97;;;3.30;99.90;;;;;;5116688;28;20450;-78
2022/12/01 09:14:37;;;;;;;0.60;0.60;;;3.20;99.90;;;;;;5116177;28;20468;-78
2022/12/01 09:17:05;;;;;;;1.17;1.07;;;3.30;99.90;;;;;;5116606;28;20502;-78
2022/12/01 09:19:32;;;;;;;0.40;0.40;;;3.20;99.90;;;;;;5116446;28;20450;-78
2022/12/01 09:21:59;;;;;;;1.67;0.67;;;3.20;99.90;;;;;;5116363;28;20484;-78
2022/12/01 09:24:26;;;;;;;1.27;0.50;;;3.30;99.90;;;;;;5116573;28;20460;-78
2022/12/01 09:26:55;;;;;;;0.60;0.60;;;3.30;99.90;;;;;;5116117;28;20933;-78
2022/12/01 09:29:23;;;;;;;2.67;0.87;;;3.20;99.90;;;;;;5116243;28;20448;-78
2022/12/01 09:31:50;;;;;;;1.20;0.70;;;3.20;99.90;;;;;;5116230;28;20415;-77
2022/12/01 09:34:19;;;;;;;4.63;1.10;;;3.30;99.90;;;;;;5116121;28;20444;-77
2022/12/01 09:36:47;;;;;;;1.63;1.63;;;3.30;99.90;;;;;;5116180;28;20418;-77
2022/12/01 09:39:15;;;;;;;1.50;0.87;;;3.40;99.90;;;;;;5116145;28;20443;-77
2022/12/01 09:41:45;;;;;;;0.50;0.50;;;3.40;99.90;;;;;;5115980;28;20502;-77
2022/12/01 09:44:19;;;;;;;0.53;0.47;;;3.40;99.90;;;;;;5116268;28;20414;-77
2022/12/01 09:46:50;;;;;;;1.07;0.50;;;3.40;99.90;;;;;;5115981;28;20409;-77
2022/12/01 09:49:21;;;;;;;4.30;1.53;;;3.40;99.90;;;;;;5115994;28;20431;-77
2022/12/01 09:51:49;;;;;;;0.50;0.50;;;3.40;99.90;;;;;;5115906;28;20832;-77
2022/12/01 09:54:15;;;;;;;0.30;0.30;;;3.40;99.90;;;;;;5115752;28;20440;-77
2022/12/01 09:56:48;;;;;;;1.80;1.70;;;3.40;99.90;;;;;;5116014;28;20448;-78
2022/12/01 09:59:21;;;;;;;1.97;0.60;;;3.40;99.90;;;;;;5115768;27;20432;-78
2022/12/01 10:01:53;;;;;;;1.03;0.60;;;3.30;99.90;;;;;;5115530;28;20442;-77
2022/12/01 10:04:27;;;;;;;1.23;0.70;;;3.30;99.90;;;;;;5114677;28;20468;-77
2022/12/01 10:06:58;;;;;;;2.53;1.07;;;3.40;99.90;;;;;;5115295;28;20430;-77
2022/12/01 10:09:31;;;;;;;0.40;0.40;;;3.40;99.90;;;;;;5115621;28;20424;-77
2022/12/01 10:12:06;;;;;;;2.93;1.60;;;3.40;99.90;;;;;;5115344;28;20402;-77
2022/12/01 10:14:35;;;;;;;0.97;0.70;;;3.30;99.90;;;;;;5115390;28;20469;-77
2022/12/01 10:17:14;;;;;;;3.90;1.20;;;3.40;99.90;;;;;;5115051;28;20948;-77
2022/12/01 10:19:49;;;;;;;2.60;1.00;;;3.30;99.90;;;;;;5115510;28;20452;-77
2022/12/01 10:22:41;;;;;;;1.93;1.00;;;3.40;99.90;;;;;;5116032;28;20470;-78
2022/12/01 10:25:20;;;;;;;2.00;0.97;;;3.30;99.90;;;;;;5113368;28;20472;-78
2022/12/01 10:27:55;;;;;;;0.30;0.30;;;3.40;99.90;;;;;;5115175;28;20436;-78
2022/12/01 10:30:23;;;;;;;0.50;0.50;;;3.40;99.90;;;;;;5115950;28;20436;-78
2022/12/01 10:32:53;;;;;;;1.27;0.50;;;3.40;99.90;;;;;;5115060;28;20451;-77
2022/12/01 10:35:22;;;;;;;0.43;0.43;;;3.40;99.90;;;;;;5114645;28;20978;-77
2022/12/01 10:37:54;;;;;;;0.50;0.50;;;3.40;99.90;;;;;;5114948;28;20425;-77
2022/12/01 10:40:21;;;;;;;0.80;0.50;;;3.40;99.90;;;;;;5114979;28;20804;-77
2022/12/01 10:42:49;;;;;;;0.60;0.60;;;3.30;99.90;;;;;;5114776;28;20476;-77
2022/12/01 10:45:23;;;;;;;6.03;1.13;;;3.40;99.90;;;;;;5114707;28;20459;-77
2022/12/01 10:48:14;;;;;;;2.83;1.33;;;3.40;99.90;;;;;;5114858;28;20473;-76
2022/12/01 10:50:42;;;;;;;1.47;1.00;;;3.40;99.90;;;;;;5114707;28;20470;-76
2022/12/01 10:53:27;;;;;;;2.73;1.33;;;3.40;99.90;;;;;;5114614;28;20444;-76
2022/12/01 10:56:02;;;;;;;0.90;0.73;;;3.30;99.90;;;;;;5114584;28;20459;-76
2022/12/01 10:58:31;;;;;;;1.13;0.67;;;3.30;99.90;;;;;;5114579;28;20446;-77
2022/12/01 11:01:01;;;;;;;1.03;1.03;;;3.30;99.90;;;;;;5114505;28;20466;-76
2022/12/01 11:03:32;;;;;;;5.90;0.97;;;3.30;99.90;;;;;;5114712;28;20471;-79
2022/12/01 11:06:02;;;;;;;0.30;0.30;;;3.40;99.90;;;;;;5114167;28;20459;-78
2022/12/01 11:08:38;;;;;;;1.83;0.80;;;3.30;99.90;;;;;;5114097;28;20947;-78
2022/12/01 11:11:06;;;;;;;1.60;0.73;;;3.30;99.90;;;;;;5114677;28;20427;-77
2022/12/01 11:13:35;;;;;;;0.50;0.50;;;3.30;99.90;;;;;;5114556;28;20440;-78
2022/12/01 11:16:04;;;;;;;2.60;0.97;;;3.30;99.90;;;;;;5113903;28;20467;-77
2022/12/01 11:18:34;;;;;;;0.30;0.30;;;3.40;99.90;;;;;;5114232;28;20454;-78
2022/12/01 11:21:11;;;;;;;3.43;1.70;;;3.40;99.90;;;;;;5113667;28;20514;-78
2022/12/01 11:23:44;;;;;;;0.80;0.57;;;3.50;99.90;;;;;;5113374;28;20985;-78
2022/12/01 11:26:14;;;;;;;2.77;0.67;;;3.50;99.90;;;;;;5114129;28;20479;-78
2022/12/01 11:28:51;;;;;;;0.90;0.90;;;3.40;99.90;;;;;;5114190;28;20431;-78
2022/12/01 11:31:19;;;;;;;0.80;0.80;;;3.50;99.90;;;;;;5113812;28;20480;-78
2022/12/01 11:33:51;;;;;;;1.53;1.07;;;3.60;99.90;;;;;;5114080;28;20440;-78
2022/12/01 11:36:30;;;;;;;3.13;1.43;;;3.50;99.90;;;;;;5114024;28;20460;-78
2022/12/01 11:38:59;;;;;;;0.77;0.77;;;3.60;99.90;;;;;;5113995;28;20444;-78
2022/12/01 11:41:32;;;;;;;2.47;0.80;;;3.50;99.90;;;;;;5114149;28;20446;-78
2022/12/01 11:44:02;;;;;;;0.57;0.57;;;3.60;99.90;;;;;;5113889;28;20424;-78
2022/12/01 11:46:32;;;;;;;1.93;0.97;;;3.60;99.90;;;;;;5113520;28;20845;-78
2022/12/01 11:49:01;;;;;;;0.80;0.80;;;3.60;99.90;;;;;;5113894;28;20427;-78
2022/12/01 11:51:35;;;;;;;10.20;0.70;;;3.60;99.90;;;;;;5113853;28;20452;-78
2022/12/01 11:54:13;;;;;;;1.33;0.73;;;3.60;99.90;;;;;;5113801;28;20534;-78
2022/12/01 11:56:40;;;;;;;0.50;0.50;;;3.70;99.90;;;;;;5113852;28;20436;-78
2022/12/01 11:59:15;;;;;;;0.77;0.77;;;3.70;99.90;;;;;;5113859;28;20454;-78
2022/12/01 12:02:00;;;;;;;0.37;0.33;;;3.70;99.90;;;;;;5114013;28;20435;-81
2022/12/01 12:04:50;;;;;;;1.10;1.00;;;3.80;99.90;;;;;;5114877;28;20578;-81
2022/12/01 12:07:26;;;;;;;2.23;1.07;;;3.70;99.90;;;;;;5114535;28;20957;-81
2022/12/01 12:10:03;;;;;;;1.13;0.50;;;3.70;99.90;;;;;;5115624;28;20488;-81
2022/12/01 12:12:51;;;;;;;2.00;1.00;;;3.70;99.90;;;;;;5114475;28;20420;-81
2022/12/01 12:15:27;;;;;;;20.97;1.13;;;3.70;99.90;;;;;;5114238;28;20551;-81
2022/12/01 12:18:15;;;;;;;1.23;0.63;;;3.70;99.90;;;;;;5114123;28;20451;-81
2022/12/01 12:20:56;;;;;;;0.60;0.60;;;3.70;99.90;;;;;;5114740;28;20478;-81
2022/12/01 12:23:38;;;;;;;6.50;1.70;;;3.80;99.90;;;;;;5115787;28;20467;-81
2022/12/01 12:26:14;;;;;;;0.80;0.40;;;3.80;99.90;;;;;;5116666;28;20463;-81
2022/12/01 12:28:56;;;;;;;1.37;1.27;;;3.80;99.90;;;;;;5116130;28;20458;-81
2022/12/01 12:31:29;;;;;;;0.57;0.57;;;3.80;99.90;;;;;;5115970;28;20424;-81
2022/12/01 12:34:06;;;;;;;0.40;0.40;;;3.80;99.90;;;;;;5118312;28;20485;-80
2022/12/01 12:36:46;;;;;;;0.67;0.67;;;3.80;99.90;;;;;;5119265;28;20432;-81
2022/12/01 12:39:31;;;;;;;2.30;1.53;;;3.80;99.90;;;;;;5119670;28;20431;-81
2022/12/01 12:42:01;;;;;;;1.13;1.10;;;3.90;99.90;;;;;;5119181;28;20937;-80
2022/12/01 12:44:43;;;;;;;0.60;0.60;;;3.90;99.90;;;;;;5118465;28;20469;-80
2022/12/01 12:47:31;;;;;;;0.70;0.70;;;4.00;99.90;;;;;;5118801;27;20424;-81
2022/12/01 12:50:09;;;;;;;1.80;0.93;;;4.00;99.90;;;;;;5119290;28;20434;-80
2022/12/01 12:52:41;;;;;;;2.77;2.37;;;4.10;99.90;;;;;;5118351;28;20431;-81
2022/12/01 12:55:15;;;;;;;3.13;1.50;;;4.10;99.90;;;;;;5118454;28;21005;-80
2022/12/01 12:57:46;;;;;;;1.90;1.57;;;4.10;99.90;;;;;;5119340;28;20430;-81
2022/12/01 13:00:16;;;;;;;1.23;0.50;;;4.10;99.90;;;;;;5119480;28;20428;-81
2022/12/01 13:02:47;;;;;;;1.60;1.20;;;4.10;99.90;;;;;;5118488;28;20843;-81
2022/12/01 13:05:20;;;;;;;1.23;0.83;;;4.10;99.90;;;;;;5119009;27;20530;-81
2022/12/01 13:07:53;;;;;;;0.37;0.37;;;4.10;99.90;;;;;;5118129;28;20462;-81
2022/12/01 13:10:26;;;;;;;0.63;0.63;;;4.10;99.90;;;;;;5117552;28;20432;-81
2022/12/01 13:12:58;;;;;;;0.77;0.67;;;4.10;99.90;;;;;;5117274;28;20428;-81
2022/12/01 13:15:27;;;;;;;4.40;0.70;;;4.00;99.90;;;;;;5117633;28;20566;-81
2022/12/01 13:17:57;;;;;;;1.07;0.60;;;4.10;99.90;;;;;;5118457;28;20451;-81